createdAt,value
2018-04-20T00:00:48.666Z,20.70
2018-04-20T00:03:16.161Z,20.70
2018-04-20T00:05:43.666Z,20.70
2018-04-20T00:08:11.149Z,20.70
2018-04-20T00:10:38.670Z,20.70
2018-04-20T00:13:07.025Z,20.60
2018-04-20T00:15:34.537Z,20.60
2018-04-20T00:18:02.000Z,20.60
2018-04-20T00:20:29.516Z,20.60
2018-04-20T00:22:57.039Z,20.60
2018-04-20T00:25:24.597Z,20.60
2018-04-20T00:27:52.092Z,20.60
2018-04-20T00:30:19.678Z,20.60
2018-04-20T00:32:47.247Z,20.60
2018-04-20T00:35:14.753Z,20.50
2018-04-20T00:37:42.268Z,20.50
2018-04-20T00:40:09.748Z,20.50
2018-04-20T00:42:37.246Z,20.50
2018-04-20T00:45:04.766Z,20.50
2018-04-20T00:47:32.278Z,20.50
2018-04-20T00:49:59.774Z,20.40
2018-04-20T00:52:27.355Z,20.40
2018-04-20T00:54:54.927Z,20.40
2018-04-20T00:57:22.501Z,20.40
2018-04-20T00:59:49.989Z,20.40
2018-04-20T01:02:18.353Z,20.40
2018-04-20T01:04:45.836Z,20.40
2018-04-20T01:07:14.101Z,20.40
2018-04-20T01:09:41.622Z,20.40
2018-04-20T01:12:09.118Z,20.40
2018-04-20T01:14:36.617Z,20.30
2018-04-20T01:17:04.114Z,20.30
2018-04-20T01:19:31.608Z,20.30
2018-04-20T01:21:59.177Z,20.30
2018-04-20T01:24:26.729Z,20.30
2018-04-20T01:26:54.293Z,20.30
2018-04-20T01:29:21.799Z,20.20
2018-04-20T01:31:50.150Z,20.20
2018-04-20T01:34:17.719Z,20.20
2018-04-20T01:36:45.207Z,20.20
2018-04-20T01:39:13.566Z,20.20
2018-04-20T01:41:41.076Z,20.20
2018-04-20T01:44:08.685Z,20.20
2018-04-20T01:46:36.258Z,20.20
2018-04-20T01:49:03.750Z,20.20
2018-04-20T01:51:32.010Z,20.10
2018-04-20T01:53:59.503Z,20.10
2018-04-20T01:56:27.759Z,20.10
2018-04-20T01:58:55.259Z,20.10
2018-04-20T02:01:22.777Z,20.10
2018-04-20T02:03:50.357Z,20.10
2018-04-20T02:06:17.841Z,20.10
2018-04-20T02:08:46.194Z,20.00
2018-04-20T02:11:13.748Z,20.00
2018-04-20T02:13:41.244Z,20.00
2018-04-20T02:16:09.613Z,20.00
2018-04-20T02:18:37.193Z,20.00
2018-04-20T02:21:04.748Z,20.00
2018-04-20T02:23:32.309Z,20.00
2018-04-20T02:25:59.808Z,19.90
2018-04-20T02:28:27.321Z,20.00
2018-04-20T02:30:54.902Z,19.90
2018-04-20T02:33:22.403Z,19.90
2018-04-20T02:35:50.660Z,19.90
2018-04-20T02:38:18.214Z,19.90
2018-04-20T02:40:45.781Z,19.90
2018-04-20T02:43:13.307Z,19.80
2018-04-20T02:45:40.913Z,19.80
2018-04-20T02:48:08.405Z,19.80
2018-04-20T02:50:36.774Z,19.80
2018-04-20T02:53:04.263Z,19.80
2018-04-20T02:55:31.760Z,19.80
2018-04-20T02:57:59.258Z,19.80
2018-04-20T03:00:26.828Z,19.80
2018-04-20T03:02:54.315Z,19.70
2018-04-20T03:05:22.673Z,19.70
2018-04-20T03:07:50.186Z,19.70
2018-04-20T03:10:17.673Z,19.70
2018-04-20T03:12:45.162Z,19.70
2018-04-20T03:15:12.679Z,19.70
2018-04-20T03:17:40.191Z,19.70
2018-04-20T03:20:08.461Z,19.70
2018-04-20T03:22:35.951Z,19.60
2018-04-20T03:25:04.231Z,19.60
2018-04-20T03:27:31.736Z,19.60
2018-04-20T03:29:59.228Z,19.60
2018-04-20T03:32:26.719Z,19.60
2018-04-20T03:34:54.278Z,19.60
2018-04-20T03:37:21.783Z,19.60
2018-04-20T03:39:49.274Z,19.60
2018-04-20T03:42:16.792Z,19.60
2018-04-20T03:44:45.040Z,19.60
2018-04-20T03:47:12.634Z,19.50
2018-04-20T03:49:40.872Z,19.50
2018-04-20T03:52:08.374Z,19.50
2018-04-20T03:54:35.874Z,19.50
2018-04-20T03:57:03.380Z,19.50
2018-04-20T03:59:30.954Z,19.50
2018-04-20T04:01:58.533Z,19.50
2018-04-20T04:04:26.033Z,19.50
2018-04-20T04:06:53.522Z,19.50
2018-04-20T04:09:21.114Z,19.50
2018-04-20T04:11:48.676Z,19.40
2018-04-20T04:14:16.169Z,19.40
2018-04-20T04:16:56.364Z,19.40
2018-04-20T04:19:35.764Z,19.40
2018-04-20T04:22:15.904Z,19.40
2018-04-20T04:24:55.436Z,19.30
2018-04-20T04:27:34.824Z,19.30
2018-04-20T04:30:02.310Z,19.30
2018-04-20T04:32:30.871Z,19.30
2018-04-20T04:34:58.405Z,19.30
2018-04-20T04:37:25.951Z,19.30
2018-04-20T04:39:54.237Z,19.30
2018-04-20T04:42:23.244Z,19.30
2018-04-20T04:44:51.613Z,19.30
2018-04-20T04:47:19.118Z,19.30
2018-04-20T04:49:46.647Z,19.30
2018-04-20T04:52:14.152Z,19.30
2018-04-20T04:54:41.645Z,19.30
2018-04-20T04:57:09.173Z,19.30
2018-04-20T04:59:36.672Z,19.30
2018-04-20T05:02:04.155Z,19.30
2018-04-20T05:04:31.722Z,19.30
2018-04-20T05:06:59.222Z,19.30
2018-04-20T05:09:26.710Z,19.30
2018-04-20T05:11:54.215Z,19.20
2018-04-20T05:14:21.788Z,19.30
2018-04-20T05:16:49.358Z,19.20
2018-04-20T05:19:16.917Z,19.20
2018-04-20T05:21:44.480Z,19.20
2018-04-20T05:24:11.975Z,19.20
2018-04-20T05:26:40.258Z,19.20
2018-04-20T05:29:08.619Z,19.20
2018-04-20T05:31:36.131Z,19.20
2018-04-20T05:34:03.628Z,19.20
2018-04-20T05:36:31.203Z,19.20
2018-04-20T05:38:58.693Z,19.20
2018-04-20T05:41:26.944Z,19.20
2018-04-20T05:43:54.476Z,19.20
2018-04-20T05:46:22.722Z,19.20
2018-04-20T05:48:50.992Z,19.20
2018-04-20T05:51:18.489Z,19.20
2018-04-20T05:53:45.982Z,19.20
2018-04-20T05:56:13.492Z,19.20
2018-04-20T05:58:41.769Z,19.20
2018-04-20T06:01:09.334Z,19.20
2018-04-20T06:03:36.805Z,19.20
2018-04-20T06:06:05.068Z,19.20
2018-04-20T06:08:32.559Z,19.10
2018-04-20T06:11:00.814Z,19.20
2018-04-20T06:13:28.302Z,19.20
2018-04-20T06:15:56.564Z,19.20
2018-04-20T06:18:24.070Z,19.20
2018-04-20T06:20:51.568Z,19.20
2018-04-20T06:23:19.066Z,19.20
2018-04-20T06:25:46.573Z,19.20
2018-04-20T06:28:14.074Z,19.20
2018-04-20T06:30:41.605Z,19.30
2018-04-20T06:33:09.107Z,19.20
2018-04-20T06:35:36.627Z,19.30
2018-04-20T06:38:04.132Z,19.30
2018-04-20T06:40:31.711Z,19.30
2018-04-20T06:42:59.214Z,19.30
2018-04-20T06:45:26.719Z,19.40
2018-04-20T06:47:54.212Z,19.40
2018-04-20T06:50:21.756Z,19.40
2018-04-20T06:52:49.338Z,19.40
2018-04-20T06:55:16.898Z,19.50
2018-04-20T06:57:44.444Z,19.50
2018-04-20T07:00:11.954Z,19.50
2018-04-20T07:02:40.213Z,19.60
2018-04-20T07:05:07.780Z,19.60
2018-04-20T07:07:35.338Z,19.60
2018-04-20T07:10:02.842Z,19.60
2018-04-20T07:12:30.335Z,19.70
2018-04-20T07:14:57.839Z,19.70
2018-04-20T07:17:25.396Z,19.70
2018-04-20T07:19:52.894Z,19.70
2018-04-20T07:22:21.250Z,19.80
2018-04-20T07:24:48.812Z,19.70
2018-04-20T07:27:16.389Z,19.80
2018-04-20T07:29:43.880Z,19.80
2018-04-20T07:32:11.412Z,19.80
2018-04-20T07:34:38.906Z,19.80
2018-04-20T07:37:06.448Z,19.80
2018-04-20T07:39:33.958Z,19.90
2018-04-20T07:42:01.452Z,19.90
2018-04-20T07:44:28.961Z,19.90
2018-04-20T07:46:57.312Z,19.90
2018-04-20T07:49:24.880Z,19.90
2018-04-20T07:51:52.374Z,19.90
2018-04-20T07:54:19.884Z,19.90
2018-04-20T07:56:47.482Z,20.00
2018-04-20T07:59:15.041Z,20.00
2018-04-20T08:01:42.602Z,20.00
2018-04-20T08:04:10.123Z,20.00
2018-04-20T08:06:37.614Z,20.10
2018-04-20T08:09:06.016Z,20.10
2018-04-20T08:11:33.519Z,20.00
2018-04-20T08:14:01.052Z,20.10
2018-04-20T08:16:28.545Z,20.10
2018-04-20T08:18:56.066Z,20.10
2018-04-20T08:21:23.556Z,20.20
2018-04-20T08:23:51.825Z,20.20
2018-04-20T08:26:19.390Z,20.20
2018-04-20T08:28:46.948Z,20.20
2018-04-20T08:31:14.462Z,20.20
2018-04-20T08:33:41.956Z,20.30
2018-04-20T08:36:09.447Z,20.30
2018-04-20T08:38:37.006Z,20.30
2018-04-20T08:41:04.507Z,20.30
2018-04-20T08:43:32.771Z,20.40
2018-04-20T08:46:00.271Z,20.40
2018-04-20T08:48:27.755Z,20.40
2018-04-20T08:50:55.345Z,20.40
2018-04-20T08:53:22.844Z,20.40
2018-04-20T08:55:51.123Z,20.50
2018-04-20T08:58:19.481Z,20.50
2018-04-20T09:00:47.041Z,20.50
2018-04-20T09:03:14.621Z,20.50
2018-04-20T09:05:42.145Z,20.60
2018-04-20T09:08:09.647Z,20.60
2018-04-20T09:10:37.137Z,20.60
2018-04-20T09:13:05.473Z,20.60
2018-04-20T09:15:32.965Z,20.60
2018-04-20T09:18:00.526Z,20.60
2018-04-20T09:20:28.056Z,20.70
2018-04-20T09:22:55.540Z,20.70
2018-04-20T09:25:23.124Z,20.70
2018-04-20T09:27:50.641Z,20.70
2018-04-20T09:30:18.149Z,20.80
2018-04-20T09:32:45.657Z,20.80
2018-04-20T09:35:13.176Z,20.80
2018-04-20T09:37:40.675Z,20.80
2018-04-20T09:40:08.187Z,20.80
2018-04-20T09:42:35.765Z,20.90
2018-04-20T09:45:03.343Z,20.90
2018-04-20T09:47:30.848Z,20.90
2018-04-20T09:49:58.371Z,21.00
2018-04-20T09:52:25.869Z,21.00
2018-04-20T09:54:53.415Z,21.00
2018-04-20T09:57:21.714Z,21.00
2018-04-20T09:59:49.273Z,21.00
2018-04-20T10:02:17.532Z,21.10
2018-04-20T10:04:53.231Z,21.10
2018-04-20T10:07:20.735Z,21.10
2018-04-20T10:09:48.225Z,21.10
2018-04-20T10:12:16.503Z,21.20
2018-04-20T10:14:44.000Z,21.20
2018-04-20T10:17:11.515Z,21.20
2018-04-20T10:19:39.030Z,21.20
2018-04-20T10:22:06.524Z,21.30
2018-04-20T10:24:34.034Z,21.30
2018-04-20T10:27:02.380Z,21.30
2018-04-20T10:29:29.967Z,21.30
2018-04-20T10:31:57.492Z,21.30
2018-04-20T10:34:24.973Z,21.40
2018-04-20T10:36:52.475Z,21.40
2018-04-20T10:39:20.724Z,21.40
2018-04-20T10:41:48.240Z,21.40
2018-04-20T10:44:15.743Z,21.50
2018-04-20T10:46:46.189Z,21.50
2018-04-20T10:49:17.903Z,21.50
2018-04-20T10:51:45.976Z,21.50
2018-04-20T10:54:13.958Z,21.50
2018-04-20T10:56:41.470Z,21.50
2018-04-20T10:59:08.986Z,21.50
2018-04-20T11:01:36.604Z,21.50
2018-04-20T11:04:04.165Z,21.50
2018-04-20T11:06:31.656Z,21.50
2018-04-20T11:08:59.908Z,21.60
2018-04-20T11:11:27.582Z,21.50
2018-04-20T11:13:55.142Z,21.60
2018-04-20T11:16:22.710Z,21.60
2018-04-20T11:18:50.274Z,21.60
2018-04-20T11:21:17.847Z,21.60
2018-04-20T11:23:45.346Z,21.60
2018-04-20T11:26:12.886Z,21.60
2018-04-20T11:28:40.385Z,21.60
2018-04-20T11:31:08.015Z,21.60
2018-04-20T11:33:35.509Z,21.60
2018-04-20T11:36:03.015Z,21.70
2018-04-20T11:38:30.507Z,21.70
2018-04-20T11:40:58.065Z,21.70
2018-04-20T11:43:25.563Z,21.70
2018-04-20T11:45:53.104Z,21.80
2018-04-20T11:48:20.612Z,21.80
2018-04-20T11:50:48.123Z,21.80
2018-04-20T11:53:15.619Z,21.80
2018-04-20T11:55:43.128Z,21.80
2018-04-20T11:58:10.642Z,21.90
2018-04-20T12:00:38.990Z,21.90
2018-04-20T12:03:06.567Z,21.90
2018-04-20T12:05:34.126Z,21.90
2018-04-20T12:08:01.657Z,21.90
2018-04-20T12:10:29.163Z,22.00
2018-04-20T12:12:56.675Z,22.00
2018-04-20T12:15:24.193Z,22.00
2018-04-20T12:17:51.707Z,22.00
2018-04-20T12:20:19.203Z,22.00
2018-04-20T12:22:46.697Z,22.10
2018-04-20T12:25:15.072Z,22.10
2018-04-20T12:27:42.610Z,22.10
2018-04-20T12:30:10.193Z,22.10
2018-04-20T12:32:37.714Z,22.10
2018-04-20T12:35:05.210Z,22.10
2018-04-20T12:37:32.769Z,22.20
2018-04-20T12:40:00.993Z,22.20
2018-04-20T12:42:29.250Z,22.20
2018-04-20T12:44:56.762Z,22.20
2018-04-20T12:47:24.262Z,22.20
2018-04-20T12:49:51.774Z,22.20
2018-04-20T12:52:20.125Z,22.30
2018-04-20T12:54:47.616Z,22.30
2018-04-20T12:57:15.882Z,22.30
2018-04-20T12:59:43.426Z,22.30
2018-04-20T13:02:10.938Z,22.30
2018-04-20T13:04:39.192Z,22.40
2018-04-20T13:07:06.687Z,22.40
2018-04-20T13:09:34.933Z,22.40
2018-04-20T13:12:02.423Z,22.40
2018-04-20T13:14:30.693Z,22.50
2018-04-20T13:16:58.963Z,22.50
2018-04-20T13:19:26.541Z,22.50
2018-04-20T13:21:54.909Z,22.50
2018-04-20T13:24:22.481Z,22.50
2018-04-20T13:26:50.058Z,22.60
2018-04-20T13:29:17.562Z,22.60
2018-04-20T13:31:45.068Z,22.60
2018-04-20T13:34:12.672Z,22.60
2018-04-20T13:36:40.933Z,22.60
2018-04-20T13:39:09.313Z,22.60
2018-04-20T13:41:36.793Z,22.60
2018-04-20T13:44:05.089Z,22.70
2018-04-20T13:46:32.611Z,22.70
2018-04-20T13:49:00.124Z,22.70
2018-04-20T13:51:27.656Z,22.70
2018-04-20T13:53:55.163Z,22.70
2018-04-20T13:56:22.692Z,22.70
2018-04-20T13:58:50.957Z,22.70
2018-04-20T14:01:18.532Z,22.70
2018-04-20T14:03:46.802Z,22.80
2018-04-20T14:06:14.390Z,22.70
2018-04-20T14:08:42.665Z,22.80
2018-04-20T14:11:10.236Z,22.80
2018-04-20T14:13:38.648Z,22.80
2018-04-20T14:16:06.175Z,22.80
2018-04-20T14:18:33.747Z,22.90
2018-04-20T14:21:01.260Z,22.90
2018-04-20T14:23:28.767Z,22.90
2018-04-20T14:25:56.287Z,22.90
2018-04-20T14:28:23.799Z,22.90
2018-04-20T14:30:51.369Z,22.80
2018-04-20T14:33:18.932Z,22.80
2018-04-20T14:35:46.446Z,22.90
2018-04-20T14:38:13.935Z,22.90
2018-04-20T14:40:41.513Z,22.90
2018-04-20T14:43:09.029Z,22.90
2018-04-20T14:45:36.525Z,22.90
2018-04-20T14:48:04.121Z,22.90
2018-04-20T14:50:31.637Z,22.90
2018-04-20T14:52:59.248Z,22.90
2018-04-20T14:55:26.743Z,22.90
2018-04-20T14:57:55.017Z,22.90
2018-04-20T15:00:23.285Z,22.90
2018-04-20T15:02:51.652Z,22.90
2018-04-20T15:05:19.149Z,22.90
2018-04-20T15:07:47.518Z,22.90
2018-04-20T15:10:15.075Z,22.90
2018-04-20T15:12:42.641Z,22.90
2018-04-20T15:15:10.179Z,22.90
2018-04-20T15:17:37.769Z,22.90
2018-04-20T15:20:05.297Z,22.90
2018-04-20T15:22:32.803Z,22.90
2018-04-20T15:25:01.851Z,23.00
2018-04-20T15:27:29.349Z,23.00
2018-04-20T15:29:56.845Z,23.00
2018-04-20T15:32:25.125Z,23.00
2018-04-20T15:34:52.617Z,23.00
2018-04-20T15:37:20.109Z,23.00
2018-04-20T15:39:47.713Z,23.00
2018-04-20T15:42:15.214Z,23.00
2018-04-20T15:44:42.721Z,23.00
2018-04-20T15:47:10.293Z,23.00
2018-04-20T15:49:37.802Z,23.00
2018-04-20T15:52:05.350Z,23.00
2018-04-20T15:54:32.807Z,23.00
2018-04-20T15:57:01.065Z,23.00
2018-04-20T15:59:28.648Z,23.00
2018-04-20T16:01:56.161Z,23.00
2018-04-20T16:04:23.689Z,23.10
2018-04-20T16:06:51.163Z,23.00
2018-04-20T16:09:19.460Z,23.10
2018-04-20T16:11:46.962Z,23.00
2018-04-20T16:14:14.479Z,23.10
2018-04-20T16:16:42.875Z,23.10
2018-04-20T16:19:10.403Z,23.10
2018-04-20T16:21:37.941Z,23.10
2018-04-20T16:24:05.459Z,23.10
2018-04-20T16:26:33.719Z,23.10
2018-04-20T16:29:01.276Z,23.10
2018-04-20T16:31:28.837Z,23.10
2018-04-20T16:33:56.416Z,23.10
2018-04-20T16:36:23.927Z,23.10
2018-04-20T16:38:51.461Z,23.10
2018-04-20T16:41:19.810Z,23.10
2018-04-20T16:43:47.320Z,23.10
2018-04-20T16:46:14.822Z,23.20
2018-04-20T16:48:42.390Z,23.20
2018-04-20T16:51:09.996Z,23.20
2018-04-20T16:53:38.272Z,23.20
2018-04-20T16:56:05.787Z,23.20
2018-04-20T16:58:33.304Z,23.20
2018-04-20T17:01:01.718Z,23.20
2018-04-20T17:03:29.203Z,23.20
2018-04-20T17:05:56.801Z,23.20
2018-04-20T17:08:24.384Z,23.20
2018-04-20T17:10:52.675Z,23.30
2018-04-20T17:13:20.942Z,23.30
2018-04-20T17:15:48.452Z,23.30
2018-04-20T17:18:16.073Z,23.30
2018-04-20T17:20:43.576Z,23.30
2018-04-20T17:23:11.079Z,23.30
2018-04-20T17:25:38.659Z,23.30
2018-04-20T17:28:06.231Z,23.30
2018-04-20T17:30:33.790Z,23.30
2018-04-20T17:33:01.376Z,23.30
2018-04-20T17:35:28.889Z,23.30
2018-04-20T17:37:56.385Z,23.30
2018-04-20T17:40:25.396Z,23.30
2018-04-20T17:42:52.896Z,23.30
2018-04-20T17:45:20.397Z,23.30
2018-04-20T17:47:47.987Z,23.30
2018-04-20T17:50:15.482Z,23.30
2018-04-20T17:52:43.751Z,23.30
2018-04-20T17:55:12.114Z,23.30
2018-04-20T17:57:39.621Z,23.30
2018-04-20T18:00:07.135Z,23.30
2018-04-20T18:02:34.635Z,23.30
2018-04-20T18:05:02.985Z,23.30
2018-04-20T18:07:30.481Z,23.30
2018-04-20T18:09:58.851Z,23.20
2018-04-20T18:12:26.378Z,23.20
2018-04-20T18:14:53.867Z,23.30
2018-04-20T18:17:21.381Z,23.30
2018-04-20T18:19:48.868Z,23.20
2018-04-20T18:22:16.366Z,23.20
2018-04-20T18:24:43.934Z,23.20
2018-04-20T18:27:11.501Z,23.20
2018-04-20T18:29:38.986Z,23.20
2018-04-20T18:32:07.313Z,23.20
2018-04-20T18:34:34.812Z,23.20
2018-04-20T18:37:03.087Z,23.10
2018-04-20T18:39:30.571Z,23.10
2018-04-20T18:41:58.836Z,23.10
2018-04-20T18:44:26.390Z,23.10
2018-04-20T18:46:53.900Z,23.10
2018-04-20T18:49:21.420Z,23.10
2018-04-20T18:51:48.946Z,23.10
2018-04-20T18:54:16.449Z,23.10
2018-04-20T18:56:44.040Z,23.10
2018-04-20T18:59:12.322Z,23.10
2018-04-20T19:01:40.693Z,23.00
2018-04-20T19:04:08.221Z,23.00
2018-04-20T19:06:35.826Z,23.00
2018-04-20T19:09:03.337Z,23.00
2018-04-20T19:11:30.821Z,23.00
2018-04-20T19:13:58.426Z,23.00
2018-04-20T19:16:25.954Z,23.00
2018-04-20T19:18:53.570Z,22.90
2018-04-20T19:21:21.845Z,22.90
2018-04-20T19:23:50.216Z,22.90
2018-04-20T19:26:17.737Z,22.90
2018-04-20T19:28:45.247Z,22.90
2018-04-20T19:31:12.755Z,22.80
2018-04-20T19:33:40.271Z,22.80
2018-04-20T19:36:07.840Z,22.80
2018-04-20T19:38:35.361Z,22.80
2018-04-20T19:41:02.884Z,22.80
2018-04-20T19:43:31.256Z,22.70
2018-04-20T19:45:58.834Z,22.70
2018-04-20T19:48:27.109Z,22.70
2018-04-20T19:50:54.612Z,22.70
2018-04-20T19:53:22.145Z,22.70
2018-04-20T19:55:50.464Z,22.60
2018-04-20T19:58:17.982Z,22.60
2018-04-20T20:00:45.558Z,22.60
2018-04-20T20:03:13.063Z,22.60
2018-04-20T20:05:40.570Z,22.60
2018-04-20T20:08:08.065Z,22.60
2018-04-20T20:10:36.417Z,22.60
2018-04-20T20:13:04.003Z,22.50
2018-04-20T20:15:32.362Z,22.50
2018-04-20T20:17:59.873Z,22.50
2018-04-20T20:20:27.365Z,22.50
2018-04-20T20:22:54.852Z,22.50
2018-04-20T20:25:22.431Z,22.50
2018-04-20T20:27:49.941Z,22.50
2018-04-20T20:30:17.442Z,22.50
2018-04-20T20:32:44.967Z,22.50
2018-04-20T20:35:12.468Z,22.40
2018-04-20T20:37:40.049Z,22.40
2018-04-20T20:40:07.551Z,22.40
2018-04-20T20:42:35.077Z,22.40
2018-04-20T20:45:02.649Z,22.40
2018-04-20T20:47:30.160Z,22.40
2018-04-20T20:49:57.728Z,22.40
2018-04-20T20:52:25.183Z,22.30
2018-04-20T20:54:52.705Z,22.30
2018-04-20T20:57:20.267Z,22.30
2018-04-20T20:59:48.527Z,22.30
2018-04-20T21:02:16.195Z,22.30
2018-04-20T21:04:44.407Z,22.30
2018-04-20T21:07:11.945Z,22.30
2018-04-20T21:09:39.433Z,22.20
2018-04-20T21:12:06.938Z,22.20
2018-04-20T21:14:34.435Z,22.20
2018-04-20T21:17:02.034Z,22.20
2018-04-20T21:19:29.535Z,22.20
2018-04-20T21:21:57.063Z,22.20
2018-04-20T21:24:24.579Z,22.20
2018-04-20T21:26:52.063Z,22.20
2018-04-20T21:29:19.564Z,22.10
2018-04-20T21:31:47.822Z,22.10
2018-04-20T21:34:15.315Z,22.10
2018-04-20T21:36:43.723Z,22.10
2018-04-20T21:39:11.221Z,22.10
2018-04-20T21:41:38.722Z,22.10
2018-04-20T21:44:06.277Z,22.10
2018-04-20T21:46:33.799Z,22.10
2018-04-20T21:49:01.306Z,22.00
2018-04-20T21:51:28.883Z,22.00
2018-04-20T21:53:57.269Z,22.00
2018-04-20T21:56:25.631Z,22.00
2018-04-20T21:58:53.207Z,22.00
2018-04-20T22:01:20.707Z,22.00
2018-04-20T22:03:48.239Z,22.00
2018-04-20T22:06:15.757Z,22.00
2018-04-20T22:08:43.270Z,21.90
2018-04-20T22:11:10.766Z,21.90
2018-04-20T22:13:38.292Z,21.90
2018-04-20T22:16:05.814Z,21.90
2018-04-20T22:18:33.324Z,21.90
2018-04-20T22:21:00.920Z,21.90
2018-04-20T22:23:29.269Z,21.90
2018-04-20T22:25:56.802Z,21.90
2018-04-20T22:28:24.385Z,21.90
2018-04-20T22:30:51.918Z,21.90
2018-04-20T22:33:19.423Z,21.90
2018-04-20T22:35:46.947Z,21.90
2018-04-20T22:38:14.461Z,21.80
2018-04-20T22:40:42.024Z,21.80
2018-04-20T22:43:09.512Z,21.80
2018-04-20T22:45:37.780Z,21.80
2018-04-20T22:48:05.341Z,21.80
2018-04-20T22:50:32.899Z,21.80
2018-04-20T22:53:00.408Z,21.80
2018-04-20T22:55:27.906Z,21.70
2018-04-20T22:57:55.489Z,21.70
2018-04-20T23:00:22.995Z,21.70
2018-04-20T23:02:50.530Z,21.70
2018-04-20T23:05:18.028Z,21.70
2018-04-20T23:07:45.517Z,21.60
2018-04-20T23:10:13.048Z,21.60
2018-04-20T23:12:41.292Z,21.60
2018-04-20T23:15:08.824Z,21.60
2018-04-20T23:17:36.342Z,21.50
2018-04-20T23:20:04.619Z,21.50
2018-04-20T23:22:32.104Z,21.50
2018-04-20T23:25:00.353Z,21.50
2018-04-20T23:27:27.940Z,21.50
2018-04-20T23:29:56.203Z,21.50
2018-04-20T23:32:23.712Z,21.40
2018-04-20T23:34:51.230Z,21.40
2018-04-20T23:37:18.811Z,21.40
2018-04-20T23:39:46.313Z,21.40
2018-04-20T23:42:13.813Z,21.30
2018-04-20T23:44:41.395Z,21.30
2018-04-20T23:47:08.890Z,21.30
2018-04-20T23:49:37.246Z,21.30
2018-04-20T23:52:04.816Z,21.30
2018-04-20T23:54:32.385Z,21.30
2018-04-20T23:56:59.939Z,21.30
2018-04-20T23:59:27.434Z,21.20
